Time;durP1;ratioP1;P1;durP2;ratioP2;P2;SDS_P1;SDS_P2;PMS_P1;PMS_P2;Temp;Humidity;BMP_temperature;BMP_pressure;BME280_temperature;BME280_humidity;BME280_pressure;Samples;Min_cycle;Max_cycle;Signal;HPM_P1;HPM_P2
2022/12/22 06:40:22;;;;;;;;;;;;;;;11.75;77.43;96952.53;4191015;27;1484699;-67
2022/12/22 06:44:46;;;;;;;;;;;;;;;12.27;76.21;96966.25;4226700;28;5829;-68
2022/12/22 06:46:48;;;;;;;;;;;;;;;12.42;75.77;96964.22;4225177;28;5806;-68
2022/12/22 06:48:52;;;;;;;;;;;;;;;12.54;75.52;96974.06;4217752;28;5697;-67
2022/12/22 06:50:57;;;;;;;;;;;;;;;12.65;75.06;96975.28;4227087;28;5659;-68
2022/12/22 06:53:00;;;;;;;;;;;;;;;12.73;74.62;96991.03;4220565;28;5784;-68
2022/12/22 06:55:04;;;;;;;;;;;;;;;12.78;74.47;96983.28;4227473;28;5092;-68
2022/12/22 06:57:08;;;;;;;;;;;;;;;12.82;74.56;96992.47;4223272;28;5849;-68
2022/12/22 06:59:11;;;;;;;;;;;;;;;12.87;74.53;96988.41;4227981;28;5667;-65
2022/12/22 07:01:14;;;;;;;;;;;;;;;12.92;74.44;96976.16;4227118;28;5680;-67
2022/12/22 07:03:16;;;;;;;;;;;;;;;12.97;74.46;96964.94;4229780;28;5672;-67
2022/12/22 07:05:20;;;;;;;;;;;;;;;13.01;73.98;96976.75;4214989;28;6496;-67
2022/12/22 07:07:22;;;;;;;;;;;;;;;13.05;73.75;96973.50;4224231;28;5763;-67
2022/12/22 07:09:26;;;;;;;;;;;;;;;13.08;74.05;96969.63;4222168;28;5700;-66
2022/12/22 07:11:29;;;;;;;;;;;;;;;13.10;73.85;96972.88;4216062;28;6269;-67
2022/12/22 07:13:35;;;;;;;;;;;;;;;13.10;73.86;96971.06;4221178;28;5685;-68
2022/12/22 07:15:37;;;;;;;;;;;;;;;13.13;73.48;96972.47;4225956;28;6357;-68
2022/12/22 07:17:40;;;;;;;;;;;;;;;13.15;73.37;96969.63;4227243;28;5643;-67
2022/12/22 07:19:44;;;;;;;;;;;;;;;13.18;73.41;96977.19;4214771;28;6374;-67
2022/12/22 07:21:47;;;;;;;;;;;;;;;13.20;73.42;96972.50;4223045;28;5784;-66
2022/12/22 07:23:50;;;;;;;;;;;;;;;13.23;73.35;96983.53;4218099;28;5775;-67
2022/12/22 07:25:53;;;;;;;;;;;;;;;13.24;73.01;96973.72;4231559;28;5668;-67
2022/12/22 07:27:56;;;;;;;;;;;;;;;13.26;72.92;96988.44;4230983;28;5680;-67
2022/12/22 07:30:02;;;;;;;;;;;;;;;13.27;72.83;96976.81;4231069;28;5684;-67
2022/12/22 07:32:05;;;;;;;;;;;;;;;13.28;72.82;96989.06;4231774;28;5687;-67
2022/12/22 07:34:08;;;;;;;;;;;;;;;13.29;72.75;96998.66;4224105;28;5709;-67
2022/12/22 07:36:14;;;;;;;;;;;;;;;13.29;72.62;96990.69;4222708;28;5689;-66
2022/12/22 07:38:17;;;;;;;;;;;;;;;13.28;72.17;96986.41;4231523;28;6352;-68
2022/12/22 07:40:20;;;;;;;;;;;;;;;13.28;72.20;96980.28;4225380;28;5703;-67
2022/12/22 07:44:45;;;;;;;;;;;;;;;13.33;72.13;96983.94;4210714;28;5696;-66
2022/12/22 07:46:49;;;;;;;;;;;;;;;13.34;71.98;96990.88;4215769;28;5661;-66
2022/12/22 07:51:12;;;;;;;;;;;;;;;13.37;71.51;96997.63;4203753;28;5697;-67
2022/12/22 07:53:15;;;;;;;;;;;;;;;13.40;71.24;97010.50;4211316;28;5809;-67
2022/12/22 07:55:18;;;;;;;;;;;;;;;13.42;71.14;97018.25;4203013;28;5765;-67
2022/12/22 07:57:21;;;;;;;;;;;;;;;13.44;70.96;97022.31;4203179;28;5693;-67
2022/12/22 07:59:24;;;;;;;;;;;;;;;13.45;70.94;97042.56;4211980;28;5660;-67
2022/12/22 08:01:27;;;;;;;;;;;;;;;13.47;70.71;97031.72;4219432;28;6623;-68
2022/12/22 08:03:32;;;;;;;;;;;;;;;13.46;70.29;97038.06;4219901;28;7235;-66
2022/12/22 08:05:37;;;;;;;;;;;;;;;13.47;70.58;97039.69;4217137;28;5810;-66
2022/12/22 08:07:40;;;;;;;;;;;;;;;13.47;70.18;97026.41;4203008;28;5694;-66
2022/12/22 08:09:42;;;;;;;;;;;;;;;13.48;70.00;97036.00;4202831;28;5693;-66
2022/12/22 08:11:45;;;;;;;;;;;;;;;13.50;70.07;97044.59;4214944;28;5664;-66
2022/12/22 08:13:48;;;;;;;;;;;;;;;13.51;70.10;97049.72;4206635;28;5802;-66
2022/12/22 08:15:51;;;;;;;;;;;;;;;13.50;70.05;97041.94;4215381;28;5672;-67
2022/12/22 08:17:54;;;;;;;;;;;;;;;13.51;69.67;97046.25;4210897;28;5692;-68
2022/12/22 08:19:58;;;;;;;;;;;;;;;13.51;69.55;97059.53;4219239;28;5735;-67
2022/12/22 08:22:01;;;;;;;;;;;;;;;13.52;69.57;97051.34;4219279;28;5676;-67
2022/12/22 08:24:04;;;;;;;;;;;;;;;13.53;69.71;97058.28;4210653;28;5672;-68
2022/12/22 08:26:11;;;;;;;;;;;;;;;13.55;69.55;97047.44;4210738;28;5903;-68
2022/12/22 08:28:16;;;;;;;;;;;;;;;13.54;69.37;97059.91;4209254;28;5628;-68
2022/12/22 08:30:20;;;;;;;;;;;;;;;13.55;69.56;97058.91;4217436;28;5783;-67
2022/12/22 08:32:23;;;;;;;;;;;;;;;13.52;69.17;97056.66;4210655;28;5664;-67
2022/12/22 08:34:26;;;;;;;;;;;;;;;13.51;69.44;97062.19;4210621;28;5747;-67
2022/12/22 08:36:34;;;;;;;;;;;;;;;13.49;69.53;97066.88;4212183;28;5692;-67
2022/12/22 08:38:38;;;;;;;;;;;;;;;13.49;69.39;97066.88;4210534;28;5878;-68
2022/12/22 08:40:43;;;;;;;;;;;;;;;13.49;69.65;97080.16;4215769;28;5095;-68
2022/12/22 08:42:46;;;;;;;;;;;;;;;13.49;69.20;97072.19;4210659;28;5697;-68
2022/12/22 08:44:52;;;;;;;;;;;;;;;13.48;69.54;97076.69;4210160;28;5812;-68
2022/12/22 08:46:56;;;;;;;;;;;;;;;13.48;69.38;97081.16;4202187;28;5803;-68
2022/12/22 08:48:59;;;;;;;;;;;;;;;13.49;69.60;97085.47;4202580;28;5787;-68
2022/12/22 08:51:02;;;;;;;;;;;;;;;13.49;69.37;97085.47;4215223;28;5616;-66
2022/12/22 08:53:08;;;;;;;;;;;;;;;13.49;69.19;97088.94;4202957;28;5725;-67
2022/12/22 08:55:31;;;;;;;;;;;;;;;13.47;69.19;97112.22;4212081;28;6520;-67
2022/12/22 08:57:34;;;;;;;;;;;;;;;13.44;69.24;97115.28;4219014;28;5667;-67
2022/12/22 08:59:37;;;;;;;;;;;;;;;13.45;69.05;97106.28;4209747;28;5922;-67
2022/12/22 09:01:42;;;;;;;;;;;;;;;13.46;69.32;97107.91;4210152;28;5668;-68
2022/12/22 09:03:50;;;;;;;;;;;;;;;13.46;69.17;97099.94;4214526;28;5681;-68
2022/12/22 09:05:59;;;;;;;;;;;;;;;13.47;69.05;97093.63;4215097;28;5739;-68
2022/12/22 09:08:04;;;;;;;;;;;;;;;13.50;69.06;97105.69;4212254;28;5682;-67
2022/12/22 09:10:10;;;;;;;;;;;;;;;13.49;69.00;97101.41;4202144;28;5784;-68
2022/12/22 09:12:12;;;;;;;;;;;;;;;13.50;68.96;97105.69;4217970;28;5704;-68
2022/12/22 09:14:15;;;;;;;;;;;;;;;13.51;68.86;97104.69;4209973;28;5827;-68
2022/12/22 09:16:19;;;;;;;;;;;;;;;13.51;68.78;97107.34;4218304;28;5680;-68
2022/12/22 09:18:22;;;;;;;;;;;;;;;13.50;68.98;97111.00;4201800;28;5701;-68
2022/12/22 09:20:24;;;;;;;;;;;;;;;13.50;68.65;97111.00;4202380;28;5776;-66
2022/12/22 09:22:28;;;;;;;;;;;;;;;13.50;68.69;97109.16;4210017;28;5701;-67
2022/12/22 09:24:30;;;;;;;;;;;;;;;13.52;68.60;97124.91;4218570;28;5755;-67
2022/12/22 09:26:35;;;;;;;;;;;;;;;13.52;68.58;97117.75;4216308;28;5688;-67
2022/12/22 09:28:38;;;;;;;;;;;;;;;13.54;68.76;97118.34;4201522;28;5696;-67
2022/12/22 09:30:49;;;;;;;;;;;;;;;13.55;68.48;97116.50;4205843;28;5656;-67
2022/12/22 09:32:54;;;;;;;;;;;;;;;13.57;68.52;97119.78;4204945;28;5781;-67
2022/12/22 09:34:57;;;;;;;;;;;;;;;13.56;68.38;97116.31;4201398;28;5702;-67
2022/12/22 09:37:00;;;;;;;;;;;;;;;13.58;68.24;97114.25;4215728;28;5676;-66
2022/12/22 09:39:07;;;;;;;;;;;;;;;13.60;68.50;97116.75;4209343;28;6370;-67
2022/12/22 09:41:16;;;;;;;;;;;;;;;13.61;68.41;97107.75;4218204;28;5703;-67
2022/12/22 09:43:27;;;;;;;;;;;;;;;13.61;68.11;97099.78;4200084;28;5639;-68
2022/12/22 09:45:32;;;;;;;;;;;;;;;13.64;68.13;97108.13;4202733;28;5787;-68
2022/12/22 09:47:39;;;;;;;;;;;;;;;13.64;68.24;97108.13;4218061;28;5771;-68
2022/12/22 09:49:41;;;;;;;;;;;;;;;13.66;67.92;97113.25;4214589;28;5701;-67
2022/12/22 09:51:48;;;;;;;;;;;;;;;13.68;68.07;97105.88;4204944;28;5866;-68
2022/12/22 09:53:54;;;;;;;;;;;;;;;13.69;68.04;97107.50;4209530;28;7074;-68
2022/12/22 09:55:57;;;;;;;;;;;;;;;13.67;68.09;97107.72;4212526;28;5705;-68
2022/12/22 09:58:00;;;;;;;;;;;;;;;13.68;67.84;97104.03;4206804;28;5660;-68
2022/12/22 10:00:14;;;;;;;;;;;;;;;13.69;67.87;97088.91;4202419;28;5710;-67
2022/12/22 10:02:27;;;;;;;;;;;;;;;13.69;67.85;97080.94;4217756;28;5731;-67
2022/12/22 10:04:44;;;;;;;;;;;;;;;13.69;67.87;97080.94;4200765;28;5694;-67
2022/12/22 10:06:55;;;;;;;;;;;;;;;13.70;67.92;97085.25;4213545;28;5687;-67
2022/12/22 10:09:02;;;;;;;;;;;;;;;13.71;68.04;97088.75;4212166;28;5820;-67
2022/12/22 10:11:14;;;;;;;;;;;;;;;13.72;67.87;97090.38;4216751;28;5837;-67
2022/12/22 10:13:18;;;;;;;;;;;;;;;13.72;67.62;97091.19;4217937;28;5672;-67
2022/12/22 10:15:23;;;;;;;;;;;;;;;13.72;67.59;97099.16;4208535;28;6398;-67
2022/12/22 10:17:30;;;;;;;;;;;;;;;13.74;67.84;97099.75;4202208;28;5697;-67
2022/12/22 10:19:32;;;;;;;;;;;;;;;13.76;67.75;97107.53;4215541;28;5675;-67
2022/12/22 10:21:36;;;;;;;;;;;;;;;13.75;67.68;97096.09;4203294;28;5689;-68
2022/12/22 10:23:48;;;;;;;;;;;;;;;13.77;67.52;97095.88;4209405;28;5690;-67
2022/12/22 10:26:05;;;;;;;;;;;;;;;13.78;67.75;97095.66;4209222;28;5703;-67
2022/12/22 10:28:33;;;;;;;;;;;;;;;13.80;67.46;97095.44;4217519;28;5656;-67
2022/12/22 10:30:40;;;;;;;;;;;;;;;13.80;67.45;97098.94;4214689;28;5664;-67
2022/12/22 10:32:43;;;;;;;;;;;;;;;13.80;67.25;97088.28;4203190;28;5693;-66
2022/12/22 10:35:00;;;;;;;;;;;;;;;13.82;67.62;97090.78;4213686;28;5728;-66
2022/12/22 10:37:05;;;;;;;;;;;;;;;13.82;67.55;97088.94;4208969;28;5728;-66
2022/12/22 10:39:11;;;;;;;;;;;;;;;13.84;67.66;97076.25;4200442;28;5854;-67
2022/12/22 10:41:18;;;;;;;;;;;;;;;13.84;67.69;97076.25;4207275;28;5089;-67
2022/12/22 10:43:23;;;;;;;;;;;;;;;13.83;67.64;97084.44;4200658;28;8470;-66
2022/12/22 10:45:28;;;;;;;;;;;;;;;13.84;67.57;97078.91;4200650;28;6819;-67
2022/12/22 10:47:32;;;;;;;;;;;;;;;13.84;67.51;97070.13;4210844;28;5656;-67
2022/12/22 10:49:38;;;;;;;;;;;;;;;13.83;67.46;97079.94;4214866;28;5668;-67
2022/12/22 10:51:40;;;;;;;;;;;;;;;13.83;67.51;97069.31;4203691;28;5656;-66
2022/12/22 10:53:48;;;;;;;;;;;;;;;13.81;67.50;97073.16;4209199;28;5774;-66
2022/12/22 10:56:05;;;;;;;;;;;;;;;13.77;67.32;97054.19;4209035;28;5818;-66
2022/12/22 10:58:16;;;;;;;;;;;;;;;13.81;67.32;97054.56;4208799;28;5787;-66
2022/12/22 11:00:25;;;;;;;;;;;;;;;13.81;67.27;97070.50;4208388;28;5685;-66
2022/12/22 11:02:37;;;;;;;;;;;;;;;13.82;67.02;97062.38;4201794;28;6383;-66
2022/12/22 11:04:40;;;;;;;;;;;;;;;13.83;67.09;97058.69;4208739;28;5751;-66
2022/12/22 11:06:44;;;;;;;;;;;;;;;13.85;67.26;97059.28;4205279;28;6458;-66
2022/12/22 11:08:47;;;;;;;;;;;;;;;13.88;67.20;97066.00;4212974;28;5668;-67
2022/12/22 11:10:57;;;;;;;;;;;;;;;13.87;66.87;97049.25;4212237;28;5765;-66
2022/12/22 11:13:23;;;;;;;;;;;;;;;13.88;66.95;97048.22;4213772;28;5092;-66
2022/12/22 11:15:34;;;;;;;;;;;;;;;13.89;66.83;97051.69;4201380;28;5726;-66
2022/12/22 11:17:49;;;;;;;;;;;;;;;13.89;66.76;97047.19;4203873;28;5780;-67
2022/12/22 11:20:03;;;;;;;;;;;;;;;13.93;66.70;97045.78;4216712;28;5660;-66
2022/12/22 11:22:16;;;;;;;;;;;;;;;13.94;66.67;97051.91;4205231;28;5697;-66
2022/12/22 11:24:27;;;;;;;;;;;;;;;13.94;66.83;97050.06;4212170;28;5671;-66
2022/12/22 11:26:40;;;;;;;;;;;;;;;13.93;66.45;97048.44;4211737;28;5816;-66
2022/12/22 11:29:05;;;;;;;;;;;;;;;13.92;66.48;97052.09;4211526;28;5652;-66
2022/12/22 11:31:21;;;;;;;;;;;;;;;13.92;66.77;97051.28;4211332;28;5759;-66
2022/12/22 11:33:43;;;;;;;;;;;;;;;13.93;66.63;97051.09;4211575;28;5765;-66
2022/12/22 11:35:56;;;;;;;;;;;;;;;13.92;66.21;97052.09;4207800;28;5075;-66
2022/12/22 11:38:11;;;;;;;;;;;;;;;13.90;66.35;97053.34;4203280;28;6387;-66
2022/12/22 11:40:28;;;;;;;;;;;;;;;13.87;66.39;97043.13;4219700;28;5660;-66
2022/12/22 11:42:51;;;;;;;;;;;;;;;13.89;66.27;97047.19;4219958;28;5653;-66
2022/12/22 11:45:08;;;;;;;;;;;;;;;13.89;66.34;97031.25;4220045;28;5668;-66
2022/12/22 11:47:25;;;;;;;;;;;;;;;13.91;66.38;97031.84;4212590;28;5853;-66
2022/12/22 11:49:45;;;;;;;;;;;;;;;13.94;66.07;97028.81;4203306;28;5693;-66
2022/12/22 11:52:07;;;;;;;;;;;;;;;13.98;66.19;97014.06;4215727;28;5870;-67
2022/12/22 11:54:32;;;;;;;;;;;;;;;13.98;66.05;97013.25;4220290;28;5767;-66
2022/12/22 11:56:39;;;;;;;;;;;;;;;14.00;65.96;97011.19;4211281;28;5672;-66
2022/12/22 11:58:58;;;;;;;;;;;;;;;13.98;65.97;97000.78;4202884;28;5693;-66
2022/12/22 12:01:12;;;;;;;;;;;;;;;13.99;66.00;96996.28;4201530;28;5757;-66
2022/12/22 12:03:54;;;;;;;;;;;;;;;14.02;65.92;97000.34;4208330;28;5703;-66
2022/12/22 12:06:30;;;;;;;;;;;;;;;14.05;65.78;97003.41;4191285;28;5684;-67
2022/12/22 12:08:45;;;;;;;;;;;;;;;14.08;65.74;97003.00;4208984;28;5628;-68
2022/12/22 12:10:50;;;;;;;;;;;;;;;14.10;65.56;97002.78;4210692;28;5701;-67
2022/12/22 12:12:59;;;;;;;;;;;;;;;14.09;65.51;97004.63;4210147;28;5742;-69
2022/12/22 12:15:15;;;;;;;;;;;;;;;14.08;65.56;97003.00;4210361;28;5697;-67
2022/12/22 12:17:31;;;;;;;;;;;;;;;14.08;65.51;96999.53;4207333;28;5746;-69
2022/12/22 12:20:08;;;;;;;;;;;;;;;14.06;65.56;96994.41;4209486;28;5727;-67
2022/12/22 12:22:19;;;;;;;;;;;;;;;14.05;65.53;96986.66;4210862;28;5766;-67
2022/12/22 12:24:39;;;;;;;;;;;;;;;14.06;65.47;96982.97;4210844;28;5746;-68
2022/12/22 12:26:49;;;;;;;;;;;;;;;14.06;65.54;96986.44;4208368;28;5794;-67
2022/12/22 12:29:06;;;;;;;;;;;;;;;14.06;65.44;96988.28;4210631;28;5772;-67
2022/12/22 12:31:14;;;;;;;;;;;;;;;14.06;65.53;96988.28;4201807;28;5689;-67
2022/12/22 12:33:36;;;;;;;;;;;;;;;14.04;65.45;96979.69;4202427;28;5792;-67
2022/12/22 12:35:50;;;;;;;;;;;;;;;14.02;65.28;96993.19;4210540;28;6513;-67
2022/12/22 12:38:01;;;;;;;;;;;;;;;14.02;65.30;96990.53;4202230;28;5689;-67
2022/12/22 12:40:21;;;;;;;;;;;;;;;13.99;65.15;96988.31;4210403;28;5970;-67
2022/12/22 12:42:31;;;;;;;;;;;;;;;13.99;65.37;96985.63;4211294;28;5666;-66
2022/12/22 12:44:36;;;;;;;;;;;;;;;13.96;65.18;96992.19;4217758;28;5860;-66
2022/12/22 12:46:59;;;;;;;;;;;;;;;13.94;65.32;96996.91;4213984;28;5672;-67
2022/12/22 12:49:03;;;;;;;;;;;;;;;13.94;65.11;96996.09;4202253;28;5780;-67
2022/12/22 12:51:39;;;;;;;;;;;;;;;13.94;65.23;96996.91;4212371;28;5781;-67
2022/12/22 12:54:22;;;;;;;;;;;;;;;13.94;65.11;96983.63;4202526;28;6859;-66
2022/12/22 12:56:54;;;;;;;;;;;;;;;13.91;65.01;96989.34;4211568;28;5675;-66
2022/12/22 12:58:57;;;;;;;;;;;;;;;13.94;65.03;96996.09;4209775;28;5715;-67
2022/12/22 13:01:01;;;;;;;;;;;;;;;13.92;64.91;96992.81;4208743;28;5672;-67
2022/12/22 13:03:09;;;;;;;;;;;;;;;13.90;65.20;97006.31;4217412;28;5840;-67
2022/12/22 13:05:35;;;;;;;;;;;;;;;13.91;65.17;97007.13;4213448;28;5686;-67
2022/12/22 13:08:14;;;;;;;;;;;;;;;13.93;64.88;97010.38;4202061;28;5664;-67
2022/12/22 13:10:20;;;;;;;;;;;;;;;13.91;64.80;96999.97;4202254;28;5672;-67
2022/12/22 13:12:34;;;;;;;;;;;;;;;13.88;65.01;96996.91;4202519;28;5771;-66
2022/12/22 13:14:55;;;;;;;;;;;;;;;13.90;64.91;96998.34;4218445;28;6474;-67
2022/12/22 13:17:31;;;;;;;;;;;;;;;13.91;64.94;96996.50;4217233;28;5749;-67
2022/12/22 13:19:34;;;;;;;;;;;;;;;13.91;64.94;96992.00;4216852;28;5858;-67
2022/12/22 13:21:40;;;;;;;;;;;;;;;13.91;64.94;96986.69;4215162;28;5842;-66
2022/12/22 13:24:03;;;;;;;;;;;;;;;13.92;64.93;96988.31;4211287;28;5859;-67
2022/12/22 13:26:32;;;;;;;;;;;;;;;13.92;64.88;96974.22;4209746;28;5806;-67
2022/12/22 13:28:36;;;;;;;;;;;;;;;13.91;64.91;96973.38;4208278;28;5648;-67
2022/12/22 13:30:39;;;;;;;;;;;;;;;13.91;64.55;96969.91;4216612;28;5951;-67
2022/12/22 13:32:44;;;;;;;;;;;;;;;13.90;64.51;96981.56;4215841;28;5660;-67
2022/12/22 13:34:54;;;;;;;;;;;;;;;13.89;64.67;96991.41;4207220;28;5799;-67
2022/12/22 13:37:20;;;;;;;;;;;;;;;13.89;64.57;96982.59;4201621;28;5711;-67
2022/12/22 13:39:23;;;;;;;;;;;;;;;13.88;64.81;96979.13;4203144;28;5692;-67
2022/12/22 13:41:28;;;;;;;;;;;;;;;13.87;64.55;96974.84;4208352;28;5701;-67
2022/12/22 13:43:32;;;;;;;;;;;;;;;13.90;64.58;96970.94;4202856;28;5697;-68
2022/12/22 13:45:41;;;;;;;;;;;;;;;13.90;64.43;96968.28;4214469;28;5779;-67
2022/12/22 13:47:46;;;;;;;;;;;;;;;13.91;64.48;96965.41;4214695;28;6468;-66
2022/12/22 13:49:50;;;;;;;;;;;;;;;13.92;64.69;96969.69;4218106;28;6405;-68
2022/12/22 13:52:16;;;;;;;;;;;;;;;13.90;64.64;96962.97;4218214;28;5668;-66
2022/12/22 13:54:26;;;;;;;;;;;;;;;13.92;64.61;96964.38;4209344;28;5664;-66
2022/12/22 13:56:39;;;;;;;;;;;;;;;13.90;64.41;96958.47;4201292;28;5702;-66
2022/12/22 13:58:45;;;;;;;;;;;;;;;13.91;64.32;96960.09;4201224;28;5860;-66
2022/12/22 14:01:00;;;;;;;;;;;;;;;13.90;64.43;96942.53;4200954;28;5760;-66
2022/12/22 14:03:13;;;;;;;;;;;;;;;13.89;64.27;96948.88;4209348;28;5681;-66
2022/12/22 14:05:36;;;;;;;;;;;;;;;13.89;64.52;96951.53;4201164;28;5760;-66
2022/12/22 14:07:39;;;;;;;;;;;;;;;13.89;64.29;96946.22;4209077;28;5733;-67
2022/12/22 14:09:43;;;;;;;;;;;;;;;13.89;64.25;96956.03;4201315;28;5800;-67
2022/12/22 14:11:50;;;;;;;;;;;;;;;13.90;64.29;96957.66;4200966;28;5708;-67
2022/12/22 14:13:54;;;;;;;;;;;;;;;13.90;64.06;96957.66;4214685;28;5687;-68
2022/12/22 14:16:01;;;;;;;;;;;;;;;13.88;64.22;96960.53;4216244;28;5676;-68
2022/12/22 14:18:05;;;;;;;;;;;;;;;13.88;64.00;96949.91;4209219;28;5701;-68
2022/12/22 14:20:17;;;;;;;;;;;;;;;13.90;64.04;96952.34;4210349;28;5697;-68
2022/12/22 14:22:24;;;;;;;;;;;;;;;13.91;64.06;96959.28;4209522;28;5687;-67
2022/12/22 14:24:28;;;;;;;;;;;;;;;13.90;64.09;96958.47;4216597;28;5675;-66
2022/12/22 14:26:38;;;;;;;;;;;;;;;13.91;63.83;96952.13;4200804;28;5686;-66
2022/12/22 14:28:49;;;;;;;;;;;;;;;13.91;63.97;96954.78;4203816;28;5664;-69
2022/12/22 14:30:53;;;;;;;;;;;;;;;13.91;63.94;96954.78;4207518;28;5608;-66
2022/12/22 14:32:57;;;;;;;;;;;;;;;13.93;64.04;96955.41;4217421;28;5680;-69
2022/12/22 14:35:00;;;;;;;;;;;;;;;13.94;63.69;96959.69;4208890;28;5104;-67
2022/12/22 14:37:02;;;;;;;;;;;;;;;13.95;63.72;96961.34;4208847;28;5672;-67
2022/12/22 14:39:09;;;;;;;;;;;;;;;13.94;63.84;96962.34;4208737;28;5660;-66
2022/12/22 14:43:36;;;;;;;;;;;;;;;13.94;63.63;96961.53;4208619;28;5763;-67
2022/12/22 14:45:40;;;;;;;;;;;;;;;13.94;63.58;96959.69;4203121;28;5664;-67
2022/12/22 14:47:43;;;;;;;;;;;;;;;13.92;63.87;96967.03;4216399;28;5745;-66
2022/12/22 14:49:49;;;;;;;;;;;;;;;13.92;63.58;96966.22;4217643;28;5691;-67
2022/12/22 14:51:55;;;;;;;;;;;;;;;13.92;63.62;96961.72;4212446;28;5762;-67
2022/12/22 14:54:03;;;;;;;;;;;;;;;13.91;63.62;96954.78;4214687;28;6389;-66
2022/12/22 14:56:11;;;;;;;;;;;;;;;13.91;63.64;96961.94;4219054;28;5704;-67
2022/12/22 14:58:19;;;;;;;;;;;;;;;13.91;63.59;96949.47;4204037;28;5691;-66
2022/12/22 15:00:31;;;;;;;;;;;;;;;13.92;63.80;96950.28;4212747;28;5802;-67
2022/12/22 15:02:38;;;;;;;;;;;;;;;13.91;63.78;96949.47;4220689;28;5844;-68
2022/12/22 15:04:42;;;;;;;;;;;;;;;13.91;63.72;96952.13;4220805;28;5660;-68
2022/12/22 15:06:46;;;;;;;;;;;;;;;13.92;63.66;96943.13;4208206;28;5784;-67
2022/12/22 15:08:51;;;;;;;;;;;;;;;13.92;63.57;96940.47;4208270;28;5735;-67
2022/12/22 15:10:54;;;;;;;;;;;;;;;13.93;63.66;96933.31;4211969;28;5680;-67
2022/12/22 15:12:59;;;;;;;;;;;;;;;13.92;63.38;96940.47;4206630;28;5692;-68
2022/12/22 15:15:02;;;;;;;;;;;;;;;13.94;63.66;96946.41;4203491;28;5812;-68
2022/12/22 15:17:07;;;;;;;;;;;;;;;13.93;63.48;96936.81;4204066;28;5699;-67
2022/12/22 15:19:14;;;;;;;;;;;;;;;13.94;63.56;96941.09;4203742;28;5803;-67
2022/12/22 15:21:18;;;;;;;;;;;;;;;13.94;63.55;96927.81;4210518;28;5653;-66
2022/12/22 15:23:24;;;;;;;;;;;;;;;13.94;63.42;96933.13;4216904;28;5660;-68
2022/12/22 15:25:26;;;;;;;;;;;;;;;13.95;63.54;96934.75;4215803;28;5619;-68
2022/12/22 15:27:29;;;;;;;;;;;;;;;13.95;63.53;96928.63;4212763;28;5768;-67
2022/12/22 15:29:32;;;;;;;;;;;;;;;13.96;63.48;96932.91;4212765;28;7686;-69
2022/12/22 15:31:35;;;;;;;;;;;;;;;13.97;63.38;96937.19;4213917;28;6020;-67
2022/12/22 15:33:38;;;;;;;;;;;;;;;13.97;63.60;96937.19;4219361;28;5855;-67
2022/12/22 15:35:45;;;;;;;;;;;;;;;13.97;63.74;96937.19;4216924;28;5766;-67
2022/12/22 15:37:48;;;;;;;;;;;;;;;13.95;63.53;96934.75;4208246;28;5664;-67
2022/12/22 15:39:51;;;;;;;;;;;;;;;13.96;63.45;96933.72;4217185;28;5751;-68
2022/12/22 15:41:54;;;;;;;;;;;;;;;13.96;63.53;96930.25;4211572;28;5862;-66
2022/12/22 15:43:57;;;;;;;;;;;;;;;13.94;63.38;96927.81;4209285;28;5668;-67
2022/12/22 15:46:02;;;;;;;;;;;;;;;13.92;63.35;96921.88;4206758;28;5812;-66
2022/12/22 15:48:09;;;;;;;;;;;;;;;13.91;63.55;96916.75;4209937;28;6049;-66
2022/12/22 15:50:17;;;;;;;;;;;;;;;13.91;63.57;96912.25;4205134;28;5117;-66
2022/12/22 15:52:21;;;;;;;;;;;;;;;13.91;63.44;96912.25;4209587;28;5653;-67
2022/12/22 15:54:26;;;;;;;;;;;;;;;13.94;63.59;96911.88;4214463;28;5774;-66
2022/12/22 15:56:32;;;;;;;;;;;;;;;13.95;63.33;96910.03;4206942;28;5880;-67
2022/12/22 15:58:36;;;;;;;;;;;;;;;13.95;63.25;96913.50;4212165;28;5852;-66
2022/12/22 16:00:39;;;;;;;;;;;;;;;13.94;63.47;96900.41;4205802;28;5896;-66
2022/12/22 16:02:42;;;;;;;;;;;;;;;13.93;63.25;96904.91;4211792;28;5847;-66
2022/12/22 16:04:45;;;;;;;;;;;;;;;13.94;63.49;96903.88;4213007;28;5692;-66
2022/12/22 16:06:49;;;;;;;;;;;;;;;13.96;63.35;96895.69;4207771;28;5776;-67
2022/12/22 16:08:54;;;;;;;;;;;;;;;13.97;63.19;96890.16;4214768;28;5759;-67
2022/12/22 16:10:57;;;;;;;;;;;;;;;13.97;63.48;96889.34;4212326;28;5653;-66
2022/12/22 16:13:02;;;;;;;;;;;;;;;13.98;63.33;96885.66;4211876;28;5908;-67
2022/12/22 16:15:06;;;;;;;;;;;;;;;13.98;63.33;96875.84;4207837;28;6085;-67
2022/12/22 16:17:19;;;;;;;;;;;;;;;13.98;63.26;96869.72;4206501;28;7686;-67
2022/12/22 16:19:22;;;;;;;;;;;;;;;14.01;63.30;96860.50;4206450;28;5688;-67
2022/12/22 16:21:31;;;;;;;;;;;;;;;13.97;63.24;96863.59;4208330;28;6440;-66
2022/12/22 16:23:35;;;;;;;;;;;;;;;13.99;62.95;96850.91;4212491;28;5864;-66
2022/12/22 16:25:40;;;;;;;;;;;;;;;13.99;62.86;96853.56;4211703;28;5738;-67
2022/12/22 16:27:43;;;;;;;;;;;;;;;14.00;62.93;96851.72;4208991;28;5707;-67
2022/12/22 16:29:51;;;;;;;;;;;;;;;13.99;62.76;96866.84;4207119;28;5783;-67
2022/12/22 16:32:02;;;;;;;;;;;;;;;13.98;63.11;96864.41;4206541;28;5830;-67
2022/12/22 16:34:05;;;;;;;;;;;;;;;13.99;63.03;96860.72;4206742;28;5701;-67
2022/12/22 16:36:09;;;;;;;;;;;;;;;13.99;62.91;96847.44;4208020;28;5702;-67
2022/12/22 16:38:12;;;;;;;;;;;;;;;14.00;62.87;96846.41;4212568;28;5751;-67
2022/12/22 16:40:20;;;;;;;;;;;;;;;13.97;63.15;96836.19;4212280;28;6131;-67
2022/12/22 16:42:24;;;;;;;;;;;;;;;13.96;62.94;96842.53;4205002;28;5721;-67
2022/12/22 16:44:47;;;;;;;;;;;;;;;13.96;63.27;96845.22;4204323;28;5831;-68
2022/12/22 16:46:50;;;;;;;;;;;;;;;13.95;63.05;96851.56;4204954;28;6628;-68
2022/12/22 16:48:56;;;;;;;;;;;;;;;13.95;63.03;96843.56;4207878;28;6505;-69
2022/12/22 16:50:59;;;;;;;;;;;;;;;13.94;62.99;96842.75;4208838;28;5844;-68
2022/12/22 16:53:04;;;;;;;;;;;;;;;13.89;63.22;96828.47;4208511;28;5769;-69
2022/12/22 16:55:14;;;;;;;;;;;;;;;13.90;63.05;96820.28;4212240;28;5851;-69
2022/12/22 16:57:17;;;;;;;;;;;;;;;13.92;63.05;96814.75;4211630;28;6462;-68
2022/12/22 16:59:21;;;;;;;;;;;;;;;13.90;62.93;96811.50;4211240;28;5109;-68
2022/12/22 17:01:34;;;;;;;;;;;;;;;13.89;62.92;96796.56;4210865;28;5672;-68
2022/12/22 17:03:40;;;;;;;;;;;;;;;13.90;62.79;96799.03;4205642;28;5862;-69
2022/12/22 17:05:51;;;;;;;;;;;;;;;13.94;62.82;96807.41;4207678;28;5830;-69
2022/12/22 17:07:55;;;;;;;;;;;;;;;13.96;62.67;96808.81;4210389;28;5751;-68
2022/12/22 17:10:01;;;;;;;;;;;;;;;13.98;62.59;96792.66;4209547;28;5693;-70
2022/12/22 17:12:06;;;;;;;;;;;;;;;14.00;62.80;96795.91;4211122;28;5760;-70
2022/12/22 17:14:31;;;;;;;;;;;;;;;14.01;62.67;96791.41;4205195;28;5767;-70
2022/12/22 17:16:34;;;;;;;;;;;;;;;14.01;62.55;96794.88;4203998;28;5660;-75
2022/12/22 17:18:37;;;;;;;;;;;;;;;14.04;62.45;96799.75;4210952;28;5826;-76
2022/12/22 17:20:40;;;;;;;;;;;;;;;14.04;62.65;96798.94;4203160;28;5672;-75
2022/12/22 17:22:46;;;;;;;;;;;;;;;14.05;62.62;96805.91;4211056;28;5803;-73
2022/12/22 17:24:50;;;;;;;;;;;;;;;14.06;62.34;96802.22;4202027;28;5669;-71
2022/12/22 17:26:53;;;;;;;;;;;;;;;14.05;62.37;96812.03;4211389;28;5097;-72
2022/12/22 17:28:58;;;;;;;;;;;;;;;14.03;62.38;96807.94;4210383;28;7691;-71
2022/12/22 17:31:02;;;;;;;;;;;;;;;14.01;62.34;96804.69;4209988;28;5759;-70
2022/12/22 17:33:05;;;;;;;;;;;;;;;14.02;62.33;96812.44;4214349;28;6504;-71
2022/12/22 17:35:12;;;;;;;;;;;;;;;14.03;62.26;96808.75;4212466;28;6371;-72
2022/12/22 17:37:20;;;;;;;;;;;;;;;13.99;62.26;96804.91;4206731;28;5705;-70
2022/12/22 17:39:24;;;;;;;;;;;;;;;14.01;62.24;96802.84;4206100;28;5635;-67
2022/12/22 17:41:27;;;;;;;;;;;;;;;14.03;62.40;96802.63;4209406;28;5808;-67
2022/12/22 17:43:33;;;;;;;;;;;;;;;14.03;62.25;96808.75;4211871;28;5823;-67
2022/12/22 17:45:36;;;;;;;;;;;;;;;14.01;62.16;96807.34;4206049;28;5818;-68
2022/12/22 17:47:41;;;;;;;;;;;;;;;14.03;62.37;96808.75;4210785;28;5704;-67
2022/12/22 17:49:45;;;;;;;;;;;;;;;14.03;62.04;96808.75;4206458;28;5848;-67
2022/12/22 17:52:01;;;;;;;;;;;;;;;14.02;62.22;96790.38;4208793;28;6582;-68
2022/12/22 17:54:05;;;;;;;;;;;;;;;14.01;62.17;96799.38;4204640;28;5784;-68
2022/12/22 17:56:13;;;;;;;;;;;;;;;14.02;62.42;96787.72;4205403;28;5675;-68
2022/12/22 17:58:17;;;;;;;;;;;;;;;14.03;62.46;96786.66;4206466;28;5834;-68
2022/12/22 18:00:23;;;;;;;;;;;;;;;14.05;62.33;96784.63;4198714;28;5942;-67
2022/12/22 18:02:29;;;;;;;;;;;;;;;14.03;62.48;96781.34;4207706;28;5798;-68
2022/12/22 18:04:34;;;;;;;;;;;;;;;14.01;62.33;96783.41;4210208;28;5110;-68